Station History

Weather Underground - logo

Station Historical Data
Daily Summary for November 2, 2017 Units:  English    Metric   Both
« Previous Day
Next Day »
Daily Weekly Monthly Yearly Custom
  High: Low: Average:
Temperature: 65.4 °F 47.3 °F 57.1 °F
Dew Point: 54.4 °F 44.9 °F 51.1 °F
Humidity: 93 % 64 % 81 %
Wind Speed: 4.0 mph 0.0 mph 0.2 mph
Wind Gust: 4.0 mph - -
Wind:- - SE
Pressure: 30.05 in 29.95 in -
Precipitation: 0.00 in    
Historical Graphs
 
 
Tabular Data for November 2, 2017
Time Temperature Dew Point Pressure Wind Wind Speed Wind Gust Humidity Rainfall Rate (Hourly)
00:04 50.5 °F 48.0 °F 29.95 in Calm     91 % 0.00 in
00:10 50.4 °F 47.9 °F 29.96 in Calm     91 % 0.00 in
00:15 50.3 °F 47.8 °F 29.96 in Calm     91 % 0.00 in
00:20 50.3 °F 47.8 °F 29.96 in Calm     91 % 0.00 in
00:21 50.3 °F 47.8 °F 29.96 in Calm     91 % 0.00 in
00:26 50.3 °F 48.1 °F 29.96 in Calm     92 % 0.00 in
00:31 50.4 °F 48.2 °F 29.96 in Calm     92 % 0.00 in
00:36 50.6 °F 48.4 °F 29.96 in Calm     92 % 0.00 in
00:41 50.7 °F 48.5 °F 29.96 in Calm     92 % 0.00 in
00:46 50.7 °F 48.2 °F 29.97 in Calm     91 % 0.00 in
00:51 50.9 °F 48.4 °F 29.97 in Calm     91 % 0.00 in
00:56 50.9 °F 48.1 °F 29.97 in Calm     90 % 0.00 in
01:01 50.7 °F 47.6 °F 29.97 in Calm     89 % 0.00 in
01:06 50.4 °F 47.6 °F 29.97 in Calm     90 % 0.00 in
01:11 50.2 °F 47.7 °F 29.97 in Calm     91 % 0.00 in
01:16 49.7 °F 46.6 °F 29.97 in Calm     89 % 0.00 in
01:21 49.5 °F 46.7 °F 29.97 in Calm     90 % 0.00 in
01:26 49.4 °F 46.9 °F 29.97 in Calm     91 % 0.00 in
01:31 49.4 °F 46.9 °F 29.97 in Calm     91 % 0.00 in
01:36 49.1 °F 46.3 °F 29.98 in Calm     90 % 0.00 in
01:41 48.7 °F 45.9 °F 29.98 in Calm     90 % 0.00 in
01:46 48.5 °F 46.0 °F 29.97 in Calm     91 % 0.00 in
01:51 48.5 °F 46.0 °F 29.98 in Calm     91 % 0.00 in
01:52 48.6 °F 46.1 °F 29.97 in Calm     91 % 0.00 in
01:57 48.6 °F 46.1 °F 29.97 in Calm     91 % 0.00 in
02:02 48.5 °F 46.0 °F 29.97 in Calm     91 % 0.00 in
02:07 48.5 °F 46.0 °F 29.98 in Calm     91 % 0.00 in
02:12 48.1 °F 45.3 °F 29.98 in Calm     90 % 0.00 in
02:17 47.7 °F 44.9 °F 29.98 in Calm     90 % 0.00 in
02:19 47.7 °F 44.9 °F 29.98 in Calm     90 % 0.00 in
02:24 47.6 °F 45.1 °F 29.98 in Calm     91 % 0.00 in
02:29 47.7 °F 45.5 °F 29.98 in Calm     92 % 0.00 in
02:34 47.7 °F 45.5 °F 29.98 in Calm     92 % 0.00 in
02:39 47.5 °F 45.0 °F 29.97 in Calm     91 % 0.00 in
02:44 47.4 °F 44.9 °F 29.97 in Calm     91 % 0.00 in
02:49 47.4 °F 45.2 °F 29.97 in Calm     92 % 0.00 in
02:54 47.5 °F 45.0 °F 29.97 in Calm     91 % 0.00 in
02:59 47.6 °F 45.1 °F 29.97 in Calm     91 % 0.00 in
03:04 47.5 °F 45.0 °F 29.97 in Calm     91 % 0.00 in
03:09 47.6 °F 45.1 °F 29.97 in Calm     91 % 0.00 in
03:14 47.8 °F 45.6 °F 29.97 in Calm     92 % 0.00 in
03:19 47.9 °F 45.4 °F 29.97 in Calm     91 % 0.00 in
03:25 47.9 °F 45.4 °F 29.97 in Calm     91 % 0.00 in
03:30 47.9 °F 45.4 °F 29.97 in Calm     91 % 0.00 in
03:35 47.9 °F 45.4 °F 29.96 in Calm     91 % 0.00 in
03:40 48.0 °F 45.5 °F 29.97 in Calm     91 % 0.00 in
03:45 47.9 °F 45.4 °F 29.97 in Calm     91 % 0.00 in
03:50 47.8 °F 45.3 °F 29.97 in Calm     91 % 0.00 in
03:55 47.6 °F 45.1 °F 29.96 in Calm     91 % 0.00 in
04:00 47.4 °F 44.9 °F 29.97 in Calm     91 % 0.00 in
04:05 47.3 °F 45.1 °F 29.97 in Calm     92 % 0.00 in
04:10 47.3 °F 45.1 °F 29.96 in Calm     92 % 0.00 in
04:15 47.3 °F 45.1 °F 29.96 in Calm     92 % 0.00 in
04:20 47.4 °F 45.5 °F 29.96 in Calm     93 % 0.00 in
04:25 47.8 °F 45.9 °F 29.96 in Calm     93 % 0.00 in
04:30 48.2 °F 46.3 °F 29.96 in Calm     93 % 0.00 in
04:35 48.6 °F 46.7 °F 29.96 in Calm     93 % 0.00 in
04:40 48.7 °F 46.5 °F 29.96 in Calm     92 % 0.00 in
04:45 48.9 °F 46.7 °F 29.96 in Calm     92 % 0.00 in
04:50 49.1 °F 46.9 °F 29.97 in Calm     92 % 0.00 in
04:55 49.0 °F 46.5 °F 29.97 in Calm     91 % 0.00 in
05:00 48.9 °F 46.4 °F 29.97 in Calm     91 % 0.00 in
05:05 49.1 °F 46.9 °F 29.97 in Calm     92 % 0.00 in
05:10 49.5 °F 47.0 °F 29.97 in Calm     91 % 0.00 in
05:11 49.6 °F 47.1 °F 29.97 in Calm     91 % 0.00 in
05:16 50.0 °F 47.2 °F 29.97 in Calm     90 % 0.00 in
05:21 50.5 °F 47.7 °F 29.97 in Calm     90 % 0.00 in
05:26 50.9 °F 47.8 °F 29.97 in Calm     89 % 0.00 in
05:31 51.3 °F 48.2 °F 29.97 in Calm     89 % 0.00 in
05:36 51.7 °F 48.6 °F 29.97 in Calm     89 % 0.00 in
05:41 51.6 °F 48.5 °F 29.97 in Calm     89 % 0.00 in
05:46 51.3 °F 48.2 °F 29.97 in Calm     89 % 0.00 in
05:51 51.2 °F 48.4 °F 29.97 in Calm     90 % 0.00 in
05:56 51.1 °F 48.3 °F 29.98 in Calm     90 % 0.00 in
06:01 51.1 °F 48.3 °F 29.98 in Calm     90 % 0.00 in
06:06 51.1 °F 48.3 °F 29.98 in Calm     90 % 0.00 in
06:11 51.2 °F 48.7 °F 29.98 in Calm     91 % 0.00 in
06:16 51.3 °F 48.8 °F 29.98 in Calm     91 % 0.00 in
06:21 51.4 °F 48.9 °F 29.98 in Calm     91 % 0.00 in
06:26 51.8 °F 49.3 °F 29.98 in Calm     91 % 0.00 in
06:31 52.1 °F 49.3 °F 29.98 in Calm     90 % 0.00 in
06:36 52.5 °F 49.4 °F 29.98 in Calm     89 % 0.00 in
06:41 52.7 °F 49.2 °F 29.98 in Calm     88 % 0.00 in
06:46 53.1 °F 49.6 °F 29.98 in Calm     88 % 0.00 in
06:51 53.3 °F 49.5 °F 29.98 in Calm     87 % 0.00 in
06:56 53.5 °F 49.7 °F 29.98 in Calm     87 % 0.00 in
07:01 53.6 °F 49.8 °F 29.98 in Calm     87 % 0.00 in
07:06 53.6 °F 50.1 °F 29.98 in Calm     88 % 0.00 in
07:11 53.6 °F 50.1 °F 29.99 in Calm     88 % 0.00 in
07:16 53.7 °F 50.2 °F 29.99 in Calm     88 % 0.00 in
07:21 53.6 °F 50.1 °F 29.99 in Calm     88 % 0.00 in
07:26 53.4 °F 49.9 °F 29.99 in Calm     88 % 0.00 in
07:31 53.2 °F 50.0 °F 29.99 in Calm     89 % 0.00 in
07:32 53.2 °F 50.0 °F 29.99 in Calm     89 % 0.00 in
07:37 53.2 °F 50.0 °F 29.99 in Calm     89 % 0.00 in
07:42 53.2 °F 50.3 °F 30.00 in Calm     90 % 0.00 in
07:47 53.3 °F 50.4 °F 30.00 in Calm     90 % 0.00 in
07:52 53.4 °F 50.5 °F 30.00 in Calm     90 % 0.00 in
07:57 53.5 °F 50.6 °F 30.00 in Calm     90 % 0.00 in
08:02 53.6 °F 50.7 °F 30.00 in Calm     90 % 0.00 in
08:07 53.7 °F 50.8 °F 30.01 in Calm     90 % 0.00 in
08:12 53.9 °F 51.0 °F 30.01 in Calm     90 % 0.00 in
08:17 54.1 °F 51.2 °F 30.01 in Calm     90 % 0.00 in
08:22 54.1 °F 51.2 °F 30.01 in Calm     90 % 0.00 in
08:27 54.3 °F 51.4 °F 30.01 in Calm     90 % 0.00 in
08:32 54.4 °F 51.2 °F 30.01 in Calm     89 % 0.00 in
08:37 54.7 °F 51.5 °F 30.01 in Calm     89 % 0.00 in
08:43 55.0 °F 51.5 °F 30.01 in Calm     88 % 0.00 in
08:48 55.3 °F 51.8 °F 30.01 in Calm     88 % 0.00 in
08:53 55.6 °F 51.5 °F 30.01 in Calm     86 % 0.00 in
08:58 56.0 °F 52.2 °F 30.01 in Calm     87 % 0.00 in
09:03 56.3 °F 52.5 °F 30.01 in Calm     87 % 0.00 in
09:08 56.4 °F 51.9 °F 30.01 in Calm     85 % 0.00 in
09:13 56.7 °F 51.9 °F 30.01 in Calm     84 % 0.00 in
09:18 56.9 °F 51.8 °F 30.02 in Calm     83 % 0.00 in
09:23 57.1 °F 51.7 °F 30.02 in Calm     82 % 0.00 in
09:28 57.3 °F 51.9 °F 30.02 in Calm     82 % 0.00 in
09:33 57.5 °F 51.7 °F 30.02 in Calm     81 % 0.00 in
09:38 57.6 °F 51.5 °F 30.02 in Calm     80 % 0.00 in
09:43 57.8 °F 51.7 °F 30.02 in Calm     80 % 0.00 in
09:48 58.2 °F 52.1 °F 30.02 in Calm     80 % 0.00 in
09:53 58.4 °F 51.9 °F 30.02 in Calm     79 % 0.00 in
09:58 58.7 °F 52.2 °F 30.02 in Calm     79 % 0.00 in
10:03 58.9 °F 52.1 °F 30.02 in Calm     78 % 0.00 in
10:08 59.1 °F 51.9 °F 30.02 in Calm     77 % 0.00 in
10:13 59.1 °F 52.2 °F 30.02 in Calm     78 % 0.00 in
10:18 59.3 °F 52.1 °F 30.03 in Calm     77 % 0.00 in
10:23 59.3 °F 52.1 °F 30.03 in Calm     77 % 0.00 in
10:28 59.5 °F 51.9 °F 30.03 in Calm     76 % 0.00 in
10:33 59.6 °F 52.0 °F 30.03 in Calm     76 % 0.00 in
10:38 59.8 °F 51.9 °F 30.04 in Calm     75 % 0.00 in
10:43 59.8 °F 51.5 °F 30.04 in ESE 1.2 mph   74 % 0.00 in
10:48 59.8 °F 51.9 °F 30.04 in Calm     75 % 0.00 in
10:53 60.0 °F 52.1 °F 30.05 in Calm     75 % 0.00 in
10:58 60.2 °F 52.2 °F 30.05 in Calm     75 % 0.00 in
11:03 60.3 °F 52.3 °F 30.05 in Calm     75 % 0.00 in
11:08 60.5 °F 52.2 °F 30.05 in East 1.0 mph 1.0 mph 74 % 0.00 in
11:13 60.7 °F 52.4 °F 30.05 in Calm   0.3 mph 74 % 0.00 in
11:18 60.9 °F 52.6 °F 30.05 in Calm     74 % 0.00 in
11:23 61.1 °F 52.7 °F 30.05 in Calm     74 % 0.00 in
11:28 61.4 °F 53.0 °F 30.05 in Calm     74 % 0.00 in
11:33 61.6 °F 52.9 °F 30.05 in Calm     73 % 0.00 in
11:38 61.7 °F 52.6 °F 30.05 in East 1.2 mph   72 % 0.00 in
11:43 61.7 °F 52.6 °F 30.05 in East 1.2 mph   72 % 0.00 in
11:48 61.7 °F 53.0 °F 30.05 in East 1.2 mph 1.2 mph 73 % 0.00 in
11:53 61.8 °F 52.7 °F 30.05 in Calm     72 % 0.00 in
11:58 61.9 °F 52.4 °F 30.05 in East 1.2 mph 1.2 mph 71 % 0.00 in
12:03 62.0 °F 53.2 °F 30.05 in East 2.0 mph   73 % 0.00 in
12:08 62.1 °F 53.0 °F 30.05 in East 2.0 mph 2.0 mph 72 % 0.00 in
12:13 62.2 °F 53.1 °F 30.04 in ESE 4.0 mph 4.0 mph 72 % 0.00 in
12:18 62.3 °F 53.5 °F 30.05 in Calm     73 % 0.00 in
12:23 62.4 °F 53.6 °F 30.04 in ESE 1.0 mph 1.0 mph 73 % 0.00 in
12:28 62.4 °F 53.6 °F 30.04 in ESE 1.2 mph   73 % 0.00 in
12:33 62.5 °F 53.7 °F 30.04 in NNE 2.3 mph   73 % 0.00 in
12:38 62.4 °F 52.9 °F 30.04 in East 3.5 mph 3.5 mph 71 % 0.00 in
12:43 62.3 °F 53.2 °F 30.03 in East 1.0 mph   72 % 0.00 in
12:48 62.3 °F 53.2 °F 30.03 in Calm     72 % 0.00 in
12:53 62.6 °F 53.1 °F 30.03 in East 1.2 mph   71 % 0.00 in
12:58 62.7 °F 52.8 °F 30.03 in East 1.2 mph 1.2 mph 70 % 0.00 in
13:03 62.8 °F 52.5 °F 30.02 in Calm   0.3 mph 69 % 0.00 in
13:08 62.9 °F 52.6 °F 30.02 in East 1.2 mph   69 % 0.00 in
13:13 63.1 °F 52.0 °F 30.02 in East 2.3 mph   67 % 0.00 in
13:18 63.4 °F 52.7 °F 30.02 in East 1.2 mph 1.2 mph 68 % 0.00 in
13:23 63.5 °F 52.3 °F 30.02 in East 1.2 mph 1.2 mph 67 % 0.00 in
13:28 63.8 °F 52.2 °F 30.01 in South 3.5 mph 3.5 mph 66 % 0.00 in
13:34 63.9 °F 52.7 °F 30.01 in Calm     67 % 0.00 in
13:39 64.1 °F 52.1 °F 30.01 in Calm     65 % 0.00 in
13:44 64.2 °F 53.0 °F 30.01 in Calm     67 % 0.00 in
13:49 64.6 °F 53.0 °F 30.01 in SE 1.2 mph 1.2 mph 66 % 0.00 in
13:54 64.8 °F 53.2 °F 30.01 in Calm     66 % 0.00 in
13:59 65.0 °F 52.5 °F 30.01 in Calm     64 % 0.00 in
14:04 65.2 °F 52.7 °F 30.01 in Calm     64 % 0.00 in
14:09 65.3 °F 53.6 °F 30.01 in Calm     66 % 0.00 in
14:14 65.4 °F 53.3 °F 30.01 in Calm     65 % 0.00 in
14:19 65.3 °F 52.8 °F 30.01 in SSE 1.2 mph 1.2 mph 64 % 0.00 in
14:24 65.3 °F 53.6 °F 30.01 in Calm     66 % 0.00 in
14:29 65.4 °F 52.9 °F 30.01 in Calm     64 % 0.00 in
14:34 65.4 °F 53.3 °F 30.01 in South 1.2 mph 1.2 mph 65 % 0.00 in
14:39 65.3 °F 53.2 °F 30.01 in South 1.2 mph 1.2 mph 65 % 0.00 in
14:41 65.4 °F 53.3 °F 30.01 in SSW 1.2 mph   65 % 0.00 in
14:46 65.3 °F 53.2 °F 30.01 in Calm     65 % 0.00 in
14:51 65.4 °F 53.3 °F 30.01 in Calm     65 % 0.00 in
14:56 65.3 °F 53.2 °F 30.01 in SE 1.2 mph   65 % 0.00 in
14:57 65.3 °F 53.2 °F 30.01 in South 1.2 mph 1.2 mph 65 % 0.00 in
15:02 65.2 °F 53.1 °F 30.02 in Calm     65 % 0.00 in
15:07 65.2 °F 53.1 °F 30.02 in Calm     65 % 0.00 in
15:12 65.1 °F 53.0 °F 30.02 in NW 1.0 mph 1.0 mph 65 % 0.00 in
15:17 65.0 °F 53.4 °F 30.02 in Calm     66 % 0.00 in
15:22 64.8 °F 53.2 °F 30.02 in SSE 1.2 mph 1.2 mph 66 % 0.00 in
15:27 64.7 °F 53.5 °F 30.02 in Calm     67 % 0.00 in
15:32 64.6 °F 53.8 °F 30.02 in Calm     68 % 0.00 in
15:37 64.6 °F 53.4 °F 30.02 in SSE 1.2 mph   67 % 0.00 in
15:42 64.7 °F 53.9 °F 30.02 in Calm     68 % 0.00 in
15:47 64.8 °F 53.6 °F 30.02 in Calm     67 % 0.00 in
15:52 64.8 °F 53.6 °F 30.02 in Calm     67 % 0.00 in
15:58 65.0 °F 53.4 °F 30.02 in Calm     66 % 0.00 in
16:03 65.1 °F 53.0 °F 30.02 in Calm     65 % 0.00 in
16:08 65.1 °F 53.5 °F 30.02 in SE 1.0 mph 1.0 mph 66 % 0.00 in
16:13 65.0 °F 52.9 °F 30.02 in Calm     65 % 0.00 in
16:18 65.0 °F 53.8 °F 30.02 in SE 1.2 mph   67 % 0.00 in
16:19 65.0 °F 53.8 °F 30.02 in SE 1.2 mph 1.2 mph 67 % 0.00 in
16:24 64.8 °F 52.8 °F 30.02 in Calm     65 % 0.00 in
16:29 64.7 °F 53.5 °F 30.02 in Calm     67 % 0.00 in
16:34 64.5 °F 53.3 °F 30.02 in Calm     67 % 0.00 in
16:39 64.3 °F 53.5 °F 30.02 in Calm     68 % 0.00 in
16:44 64.2 °F 53.4 °F 30.02 in Calm     68 % 0.00 in
16:49 64.0 °F 52.8 °F 30.02 in Calm     67 % 0.00 in
16:54 64.0 °F 53.2 °F 30.02 in Calm     68 % 0.00 in
16:59 63.9 °F 53.1 °F 30.02 in Calm     68 % 0.00 in
17:04 63.8 °F 53.4 °F 30.02 in Calm     69 % 0.00 in
17:14 63.6 °F 53.6 °F 30.01 in Calm     70 % 0.00 in
17:19 63.4 °F 53.4 °F 30.01 in Calm     70 % 0.00 in
17:24 63.2 °F 53.6 °F 30.01 in Calm     71 % 0.00 in
17:29 63.0 °F 53.8 °F 30.01 in Calm     72 % 0.00 in
17:34 62.9 °F 53.7 °F 30.01 in Calm     72 % 0.00 in
17:39 62.8 °F 54.4 °F 30.01 in Calm     74 % 0.00 in
17:44 62.5 °F 53.7 °F 30.01 in Calm     73 % 0.00 in
17:49 62.3 °F 53.5 °F 30.01 in Calm     73 % 0.00 in
17:54 62.2 °F 53.4 °F 30.01 in Calm     73 % 0.00 in
17:59 62.1 °F 54.1 °F 30.01 in Calm     75 % 0.00 in
18:04 61.9 °F 54.2 °F 30.01 in Calm     76 % 0.00 in
18:09 61.7 °F 54.1 °F 30.01 in Calm     76 % 0.00 in
18:14 61.5 °F 53.9 °F 30.01 in Calm     76 % 0.00 in
18:19 61.4 °F 53.8 °F 30.01 in Calm     76 % 0.00 in
18:24 61.3 °F 54.0 °F 30.01 in Calm     77 % 0.00 in
18:29 61.1 °F 53.8 °F 30.01 in Calm     77 % 0.00 in
18:34 60.9 °F 54.0 °F 30.01 in Calm     78 % 0.00 in
18:39 60.7 °F 53.8 °F 30.01 in Calm     78 % 0.00 in
18:44 60.4 °F 53.9 °F 30.01 in Calm     79 % 0.00 in
18:49 60.3 °F 53.4 °F 30.01 in Calm     78 % 0.00 in
18:54 60.5 °F 53.3 °F 30.01 in Calm     77 % 0.00 in
18:59 60.7 °F 53.1 °F 30.01 in Calm     76 % 0.00 in
19:05 60.7 °F 53.4 °F 30.01 in Calm     77 % 0.00 in
19:10 60.6 °F 53.3 °F 30.01 in Calm     77 % 0.00 in
19:15 60.6 °F 53.0 °F 30.02 in Calm     76 % 0.00 in
19:18 60.7 °F 53.4 °F 30.02 in Calm     77 % 0.00 in
19:23 60.7 °F 53.1 °F 30.02 in Calm     76 % 0.00 in
19:28 60.8 °F 53.2 °F 30.02 in Calm     76 % 0.00 in
19:33 60.8 °F 53.2 °F 30.02 in Calm     76 % 0.00 in
19:38 60.6 °F 53.7 °F 30.02 in Calm     78 % 0.00 in
19:43 60.5 °F 53.6 °F 30.02 in Calm     78 % 0.00 in
19:48 60.3 °F 53.8 °F 30.02 in Calm     79 % 0.00 in
19:53 60.1 °F 53.9 °F 30.02 in Calm     80 % 0.00 in
19:58 60.0 °F 53.8 °F 30.02 in Calm     80 % 0.00 in
20:03 59.9 °F 54.1 °F 30.03 in Calm     81 % 0.00 in
20:08 59.6 °F 54.1 °F 30.02 in Calm     82 % 0.00 in
20:14 59.3 °F 54.1 °F 30.03 in Calm     83 % 0.00 in
20:19 59.1 °F 53.9 °F 30.03 in Calm     83 % 0.00 in
20:21 59.1 °F 53.9 °F 30.03 in Calm     83 % 0.00 in
20:22 59.1 °F 53.9 °F 30.03 in Calm     83 % 0.00 in
20:25 59.1 °F 53.9 °F 30.03 in Calm     83 % 0.00 in
20:30 59.0 °F 53.8 °F 30.03 in Calm     83 % 0.00 in
20:35 58.9 °F 53.7 °F 30.03 in Calm     83 % 0.00 in
20:40 58.8 °F 53.6 °F 30.03 in Calm     83 % 0.00 in
20:45 58.8 °F 54.0 °F 30.03 in Calm     84 % 0.00 in
20:50 58.7 °F 53.9 °F 30.03 in Calm     84 % 0.00 in
20:55 58.7 °F 53.9 °F 30.03 in Calm     84 % 0.00 in
21:00 58.6 °F 54.1 °F 30.03 in Calm     85 % 0.00 in
21:05 58.6 °F 54.1 °F 30.03 in SSW 1.2 mph   85 % 0.00 in
21:10 58.4 °F 53.9 °F 30.03 in Calm     85 % 0.00 in
21:15 58.2 °F 54.0 °F 30.03 in Calm     86 % 0.00 in
21:20 58.2 °F 54.0 °F 30.03 in Calm     86 % 0.00 in
21:25 58.2 °F 54.0 °F 30.03 in Calm     86 % 0.00 in
21:30 58.1 °F 53.9 °F 30.03 in Calm     86 % 0.00 in
21:35 58.2 °F 53.7 °F 30.03 in Calm     85 % 0.00 in
21:40 58.2 °F 54.0 °F 30.03 in Calm     86 % 0.00 in
21:45 58.2 °F 54.0 °F 30.03 in Calm     86 % 0.00 in
21:50 58.2 °F 54.0 °F 30.03 in Calm     86 % 0.00 in
21:55 58.2 °F 54.0 °F 30.03 in Calm     86 % 0.00 in
22:00 58.2 °F 54.0 °F 30.03 in Calm     86 % 0.00 in
22:05 58.2 °F 54.0 °F 30.04 in Calm     86 % 0.00 in
22:10 58.1 °F 53.9 °F 30.04 in Calm     86 % 0.00 in
22:15 58.1 °F 53.9 °F 30.04 in Calm     86 % 0.00 in
22:20 58.0 °F 53.8 °F 30.04 in Calm     86 % 0.00 in
22:25 57.9 °F 54.1 °F 30.04 in Calm     87 % 0.00 in
22:30 57.8 °F 54.0 °F 30.04 in Calm     87 % 0.00 in
22:35 57.7 °F 54.2 °F 30.04 in Calm     88 % 0.00 in
22:40 57.6 °F 54.1 °F 30.05 in Calm     88 % 0.00 in
22:45 57.4 °F 53.9 °F 30.05 in Calm     88 % 0.00 in
22:50 57.3 °F 53.8 °F 30.05 in Calm     88 % 0.00 in
22:55 57.3 °F 54.1 °F 30.05 in Calm     89 % 0.00 in
23:00 57.2 °F 54.0 °F 30.05 in Calm     89 % 0.00 in
23:05 57.0 °F 53.5 °F 30.05 in Calm     88 % 0.00 in
23:10 56.8 °F 53.3 °F 30.05 in Calm     88 % 0.00 in
23:15 56.9 °F 53.4 °F 30.05 in Calm     88 % 0.00 in
23:20 57.0 °F 53.2 °F 30.05 in Calm     87 % 0.00 in
23:25 57.0 °F 53.2 °F 30.05 in Calm     87 % 0.00 in
23:30 57.0 °F 53.2 °F 30.05 in Calm     87 % 0.00 in
23:35 56.9 °F 53.1 °F 30.05 in Calm     87 % 0.00 in
23:40 57.0 °F 53.2 °F 30.05 in Calm     87 % 0.00 in
23:45 57.1 °F 53.0 °F 30.05 in Calm     86 % 0.00 in
23:50 57.1 °F 53.0 °F 30.05 in Calm     86 % 0.00 in
23:55 57.1 °F 53.0 °F 30.05 in Calm     86 % 0.00 in
Park Place, Exeter, Tulare County, California, USA
Compliments of Weather Underground - 2.75 mb